Ride Results

Burraga (28-09-2019)
Ride distance: 120.0 km Elevator

Outcomes - Burraga (28-09-2019)
Division No. of Entries Retired / DNE Completed Withdrawn Ineligible V/O Percentage Completed
HW 8 5 1 - - 2 75.00%
MW 14 10 2 2 - - 85.71%
LW 16 8 5 1 - 2 81.25%
JN 5 4 0 1 - - 80.00%
Totals 43 27 8 4 - 4 81.40%
Results - Burraga (28-09-2019)
No. Rider Horse Place Time Leg Speeds Total
Km/Hr
H/R bpm
Heavyweight
440 Allan Caslick A'Landell Jester 1 (BC) 8:55:00 14.2, 12.2, 13.2, 14.7 13.46 34, 44, 48, 46, 49 (Avg:46)
407 Brian Swan Arabesque Abdul Retired/DNE L2 5:41:00 15.2, 12.8 14.08 34, 44, 54 (Avg:49)
406 Charles Gauci Charleville Nazarena Retired/DNE L2 7:07:00 13.3, 9.3 11.24 36, 43, 49 (Avg:46)
428 Andrew Jonkers Girilambone Comet Retired/DNE L2 7:13:00 13.5, 8.9 11.09 32, 39, 40 (Avg:39)
424 Keith Sumpner Fonda Retired/DNE L2 9:00:00 11.3, 6.9 8.89 40, 42, 46 (Avg:44)
446 Sarah Kelly Littlebanks Storm Retired/DNE L2 10:19:00 9.6, 6.2 7.75 33, 42, 55 (Avg:48)
421 Ian Mepham Macquarie Park Dassan Lame L2 0:00:00 10.3, 7.4 - 32, 37, 46 (Avg:41)
419 Gavin Peacock Eclipse Metabolics L2 0:00:00 14.1, 9.4 - 38, 44, 55 (Avg:49)
Middleweight
449 Debbie Pevy Galaxy Mi 1 (BC) 8:49:00 14.6, 13.3, 13.0, 12.3 13.61 39, 44, 52, 51, 50 (Avg:49)
467 Ian Curtis Blake's Heaven Carousel 2 9:50:00 14.6, 13.3, 9.8, 9.2 12.20 31, 43, 45, 46, 54 (Avg:47)
410 Imogen Carrey Charleville Cherokee Charm Retired/DNE L2 7:07:00 13.3, 9.3 11.24 32, 42, 47 (Avg:44)
427 Kylie Jonkers Girilambone Seedy Bub Retired/DNE L2 7:13:00 13.5, 8.9 11.09 33, 43, 50 (Avg:46)
469 Erica Allan Waugoola Creek Onyx Retired/DNE L2 7:21:00 11.6, 10.0 10.88 38, 41, 45 (Avg:43)
443 Peter Bice Georgie Girl Retired/DNE L2 7:46:00 12.1, 8.6 10.30 33, 46, 49 (Avg:47)
473 Ben Hudson Oso Dorothy Retired/DNE L2 8:13:00 10.2, 9.1 9.74 44, 40, 43 (Avg:41)
451 Jenny Berg Rivijen Boss Retired/DNE L2 8:21:00 10.1, 8.8 9.58 40, 46, 52 (Avg:49)
431 Melissa McCoullough Forbes View Sienna Retired/DNE L2 9:00:00 11.3, 6.9 8.89 38, 43, 48, 0 (Avg:30)
459 Renee Kirk Garnee Viper Retired/DNE L2 10:00:00 9.4, 6.7 8.00 37, 36, 41 (Avg:38)
460 Noni Seagrim Berwick Royal Music Retired/DNE L2 10:00:00 9.4, 6.7 8.00 33, 42, 42 (Avg:42)
457 Bridget Maher Silver Ridge Navarro Retired/DNE L2 10:25:00 9.3, 6.2 7.68 34, 42, 40 (Avg:41)
417 Rachel Benad Hirstglen Probably W/D after vetting L2 0:00:00 - - 38, 43 (Avg:43)
445 Rebecca Lees Asiya Contessa W/D on track L2 0:00:00 - - 34, 39, 39 (Avg:39)
Lightweight
435 Gertraud Norton Scarlet Oaks Amica 1 (BC) 8:51:00 15.8, 10.4, 17.4, 11.9 13.56 43, 44, 49, 52, 51 (Avg:49)
439 Julie Hooper A'Landell Enigma 2 8:55:00 14.2, 12.2, 13.2, 14.7 13.46 37, 43, 46, 54, 48 (Avg:47)
408 Ann English Makhtar 3 10:09:00 14.7, 10.8, 10.4, 10.1 11.82 35, 48, 46, 49, 43 (Avg:46)
409 Marion Grove Diamond R Carbo 3 10:09:00 14.7, 10.8, 10.4, 10.1 11.82 33, 45, 49, 52, 49 (Avg:48)
468 Celia Hodgson Marat MA 5 11:33:00 11.1, 9.3, 10.4, 10.7 10.39 38, 35, 47, 50, 48 (Avg:45)
430 Catherine McDonald Al-Jameel Retired/DNE L2 7:21:00 11.6, 10.0 10.88 38, 42, 50 (Avg:46)
434 Roz Edmunds Everon Park Apollo Retired/DNE L2 7:25:00 12.9, 8.8 10.79 35, 41, 57 (Avg:49)
461 Monica Ballard Birrali Lawrence Retired/DNE L2 7:46:00 11.1, 9.3 10.30 33, 42, 45 (Avg:43)
472 Arabella Ward Oso Desperado Retired/DNE L2 8:13:00 10.2, 9.1 9.74 40, 46, 53 (Avg:49)
452 Allix Jones Wondjina Stardust Retired/DNE L2 8:21:00 10.1, 8.8 9.58 33, 33, 36 (Avg:34)
403 Sue Todd Shakari Bear Retired/DNE L2 8:28:00 11.2, 7.8 9.45 37, 47, 52 (Avg:49)
418 Nichola Mepham Orsum-Ma Retired/DNE L2 9:04:00 10.3, 7.4 8.82 44, 49, 55 (Avg:52)
454 Faith Robinson Sassy Grace Retired/DNE L2 9:04:00 10.3, 7.4 8.82 34, 43, 57 (Avg:50)
466 Fia Hasko-Stewart Blake's Heaven Adventuress Metabolics L3 0:00:00 14.6, 13.3, 9.8 - 34, 41, 47, 40 (Avg:42)
402 Robin Gossip Panache Lame L2 0:00:00 9.9, 10.0 - 30, 42, 42 (Avg:42)
471 Kate Pilley Box Hill Jackpot W/D after vetting L1 0:00:00 - - 34, 32 (Avg:32)
Junior
433 Jayme Cooper Jupiter Sharara Retired/DNE L2 7:25:00 13.5, 8.5 10.79 36, 44, 54 (Avg:49)
444 Alexander Bice Silverbow Taliah Retired/DNE L2 7:46:00 12.1, 8.6 10.30 31, 40, 48 (Avg:44)
438 Madison Hooper Hill-Fry Splash of Gold Retired/DNE L2 10:02:00 9.3, 6.7 7.97 40, 47, 42 (Avg:44)
441 Kaitlyn Mercieca Henley Farm Fursan Retired/DNE L2 10:02:00 9.3, 6.7 7.97 43, 46, 47 (Avg:46)
442 Tahnaya Mercieca Henley Farm Burosh W/D after vetting L1 0:00:00 - - 37, 47, 0 (Avg:23)